createdAt,value
2019-06-07T00:00:36.750Z,1011.51
2019-06-07T00:01:20.772Z,1011.54
2019-06-07T00:02:32.511Z,1011.54
2019-06-07T00:03:27.673Z,1011.54
2019-06-07T00:04:21.342Z,1011.44
2019-06-07T00:05:19.858Z,1011.46
2019-06-07T00:06:23.911Z,1011.44
2019-06-07T00:07:21.850Z,1011.43
2019-06-07T00:08:24.862Z,1011.43
2019-06-07T00:09:22.369Z,1011.46
2019-06-07T00:10:35.253Z,1011.44
2019-06-07T00:11:20.528Z,1011.43
2019-06-07T00:12:21.065Z,1011.41
2019-06-07T00:13:19.934Z,1011.44
2019-06-07T00:14:18.895Z,1011.41
2019-06-07T00:15:26.894Z,1011.40
2019-06-07T00:16:22.725Z,1011.40
2019-06-07T00:17:19.632Z,1011.36
2019-06-07T00:18:25.313Z,1011.37
2019-06-07T00:19:19.043Z,1011.34
2019-06-07T00:20:22.741Z,1011.40
2019-06-07T00:21:20.312Z,1011.33
2019-06-07T00:22:30.059Z,1011.34
2019-06-07T00:23:22.110Z,1011.35
2019-06-07T00:24:19.343Z,1011.34
2019-06-07T00:25:22.804Z,1011.30
2019-06-07T00:26:21.302Z,1011.29
2019-06-07T00:27:18.283Z,1011.30
2019-06-07T00:28:18.463Z,1011.27
2019-06-07T00:29:19.030Z,1011.26
2019-06-07T00:30:39.556Z,1011.33
2019-06-07T00:31:23.935Z,1011.24
2019-06-07T00:32:21.724Z,1011.27
2019-06-07T00:33:21.116Z,1011.39
2019-06-07T00:34:20.055Z,1011.38
2019-06-07T00:35:20.295Z,1011.41
2019-06-07T00:36:20.582Z,1011.39
2019-06-07T00:37:19.784Z,1011.42
2019-06-07T00:38:20.481Z,1011.41
2019-06-07T00:39:21.838Z,1011.40
2019-06-07T00:40:27.412Z,1011.43
2019-06-07T00:41:19.303Z,1011.40
2019-06-07T00:42:19.358Z,1011.33
2019-06-07T00:43:20.364Z,1011.38
2019-06-07T00:44:21.535Z,1011.32
2019-06-07T00:45:24.791Z,1011.28
2019-06-07T00:46:18.751Z,1011.26
2019-06-07T00:47:21.765Z,1011.28
2019-06-07T00:48:27.460Z,1011.27
2019-06-07T00:49:32.327Z,1011.21
2019-06-07T00:50:21.928Z,1011.27
2019-06-07T00:51:19.605Z,1011.23
2019-06-07T00:53:10.626Z,1011.24
2019-06-07T00:53:28.604Z,1011.25
2019-06-07T00:54:19.826Z,1011.25
2019-06-07T00:55:18.116Z,1011.22
2019-06-07T00:56:18.751Z,1011.23
2019-06-07T00:57:19.371Z,1011.25
2019-06-07T00:58:20.724Z,1011.30
2019-06-07T00:59:20.990Z,1011.30
2019-06-07T01:00:23.266Z,1011.28
2019-06-07T01:01:22.172Z,1011.28
2019-06-07T01:02:20.908Z,1011.29
2019-06-07T01:03:18.079Z,1011.32
2019-06-07T01:04:19.363Z,1011.24
2019-06-07T01:05:20.265Z,1011.24
2019-06-07T01:06:21.349Z,1011.23
2019-06-07T01:07:18.347Z,1011.25
2019-06-07T01:08:21.525Z,1011.23
2019-06-07T01:09:18.427Z,1011.23
2019-06-07T01:10:28.758Z,1011.18
2019-06-07T01:11:20.527Z,1011.13
2019-06-07T01:12:19.496Z,1011.21
2019-06-07T01:13:18.538Z,1011.15
2019-06-07T01:14:21.425Z,1011.16
2019-06-07T01:15:22.193Z,1011.12
2019-06-07T01:16:18.760Z,1011.13
2019-06-07T01:17:27.988Z,1011.09
2019-06-07T01:18:38.414Z,1011.12
2019-06-07T01:19:18.895Z,1011.11
2019-06-07T01:20:17.334Z,1011.15
2019-06-07T01:21:20.646Z,1011.14
2019-06-07T01:22:18.418Z,1011.18
2019-06-07T01:23:54.281Z,1011.19
2019-06-07T01:24:17.682Z,1011.24
2019-06-07T01:25:18.328Z,1011.18
2019-06-07T01:26:21.613Z,1011.21
2019-06-07T01:27:18.165Z,1011.25
2019-06-07T01:28:21.406Z,1011.24
2019-06-07T01:29:19.528Z,1011.25
2019-06-07T01:30:23.254Z,1011.27
2019-06-07T01:31:20.558Z,1011.30
2019-06-07T01:32:26.981Z,1011.29
2019-06-07T01:33:16.463Z,1011.24
2019-06-07T01:34:18.567Z,1011.26
2019-06-07T01:35:16.636Z,1011.26
2019-06-07T01:36:17.898Z,1011.31
2019-06-07T01:37:16.857Z,1011.27
2019-06-07T01:38:17.177Z,1011.30
2019-06-07T01:39:16.416Z,1011.32
2019-06-07T01:40:17.171Z,1011.28
2019-06-07T01:41:17.350Z,1011.21
2019-06-07T01:42:18.132Z,1011.22
2019-06-07T01:43:17.061Z,1011.20
2019-06-07T01:44:18.553Z,1011.18
2019-06-07T01:45:18.435Z,1011.18
2019-06-07T01:46:16.348Z,1011.16
2019-06-07T01:47:17.856Z,1011.12
2019-06-07T01:48:21.015Z,1011.14
2019-06-07T01:49:17.279Z,1011.08
2019-06-07T01:50:17.071Z,1011.10
2019-06-07T01:51:18.951Z,1011.06
2019-06-07T01:52:16.634Z,1011.04
2019-06-07T01:53:18.727Z,1011.05
2019-06-07T01:55:18.959Z,1011.05
2019-06-07T01:56:18.495Z,1011.06
2019-06-07T01:57:36.717Z,1011.05
2019-06-07T01:58:17.186Z,1011.08
2019-06-07T01:59:17.746Z,1011.05
2019-06-07T02:00:17.387Z,1011.12
2019-06-07T02:01:19.193Z,1011.05
2019-06-07T02:02:17.693Z,1011.03
2019-06-07T02:03:16.124Z,1011.02
2019-06-07T02:04:16.163Z,1010.98
2019-06-07T02:05:16.110Z,1010.99
2019-06-07T02:06:16.169Z,1010.92
2019-06-07T02:07:16.085Z,1010.89
2019-06-07T02:08:16.159Z,1010.86
2019-06-07T02:09:16.060Z,1010.84
2019-06-07T02:10:16.055Z,1010.89
2019-06-07T02:11:16.058Z,1010.90
2019-06-07T02:12:25.699Z,1010.90
2019-06-07T02:13:17.017Z,1010.87
2019-06-07T02:14:17.118Z,1010.91
2019-06-07T02:15:16.030Z,1010.89
2019-06-07T02:16:25.452Z,1010.84
2019-06-07T02:17:16.981Z,1010.79
2019-06-07T02:18:27.714Z,1010.85
2019-06-07T02:19:15.961Z,1010.84
2019-06-07T02:20:16.953Z,1010.78
2019-06-07T02:21:15.935Z,1010.74
2019-06-07T02:22:15.948Z,1010.77
2019-06-07T02:23:15.904Z,1010.80
2019-06-07T02:24:15.960Z,1010.79
2019-06-07T02:26:16.882Z,1010.79
2019-06-07T02:27:15.877Z,1010.78
2019-06-07T02:28:33.524Z,1010.78
2019-06-07T02:29:16.866Z,1010.74
2019-06-07T02:30:50.997Z,1010.74
2019-06-07T02:31:16.827Z,1010.71
2019-06-07T02:32:15.805Z,1010.69
2019-06-07T02:33:15.816Z,1010.77
2019-06-07T02:34:15.783Z,1010.69
2019-06-07T02:35:15.835Z,1010.76
2019-06-07T02:36:15.783Z,1010.66
2019-06-07T02:37:15.848Z,1010.61
2019-06-07T02:38:15.739Z,1010.61
2019-06-07T02:39:16.027Z,1010.57
2019-06-07T02:40:15.718Z,1010.58
2019-06-07T02:41:15.796Z,1010.51
2019-06-07T02:42:15.703Z,1010.49
2019-06-07T02:43:15.782Z,1010.52
2019-06-07T02:44:15.673Z,1010.49
2019-06-07T02:45:15.695Z,1010.46
2019-06-07T02:46:26.497Z,1010.49
2019-06-07T02:47:16.635Z,1010.49
2019-06-07T02:48:15.718Z,1010.41
2019-06-07T02:49:15.613Z,1010.47
2019-06-07T02:50:15.647Z,1010.51
2019-06-07T02:51:15.620Z,1010.49
2019-06-07T02:52:15.639Z,1010.50
2019-06-07T02:53:15.569Z,1010.51
2019-06-07T02:54:15.660Z,1010.50
2019-06-07T02:55:15.549Z,1010.49
2019-06-07T02:57:17.650Z,1010.49
2019-06-07T02:58:15.518Z,1010.49
2019-06-07T02:59:16.608Z,1010.51
2019-06-07T03:00:41.508Z,1010.46
2019-06-07T03:01:16.478Z,1010.45
2019-06-07T03:02:15.487Z,1010.46
2019-06-07T03:03:22.570Z,1010.46
2019-06-07T03:04:17.091Z,1010.47
2019-06-07T03:05:17.499Z,1010.46
2019-06-07T03:06:15.426Z,1010.46
2019-06-07T03:07:15.485Z,1010.50
2019-06-07T03:08:15.413Z,1010.48
2019-06-07T03:09:15.447Z,1010.43
2019-06-07T03:10:15.380Z,1010.47
2019-06-07T03:11:15.460Z,1010.41
2019-06-07T03:12:15.367Z,1010.42
2019-06-07T03:13:15.373Z,1010.42
2019-06-07T03:14:15.338Z,1010.45
2019-06-07T03:15:32.191Z,1010.46
2019-06-07T03:16:16.317Z,1010.45
2019-06-07T03:17:15.349Z,1010.48
2019-06-07T03:18:15.295Z,1010.48
2019-06-07T03:19:15.310Z,1010.50
2019-06-07T03:20:15.271Z,1010.44
2019-06-07T03:21:15.579Z,1010.45
2019-06-07T03:22:15.275Z,1010.42
2019-06-07T03:23:15.362Z,1010.38
2019-06-07T03:24:15.219Z,1010.36
2019-06-07T03:25:15.253Z,1010.35
2019-06-07T03:26:15.242Z,1010.32
2019-06-07T03:27:39.392Z,1010.34
2019-06-07T03:28:16.192Z,1010.35
2019-06-07T03:29:15.279Z,1010.37
2019-06-07T03:31:16.149Z,1010.35
2019-06-07T03:32:15.185Z,1010.31
2019-06-07T03:33:15.202Z,1010.34
2019-06-07T03:34:15.111Z,1010.31
2019-06-07T03:35:15.114Z,1010.37
2019-06-07T03:36:23.914Z,1010.41
2019-06-07T03:37:16.095Z,1010.41
2019-06-07T03:38:15.146Z,1010.46
2019-06-07T03:39:15.080Z,1010.47
2019-06-07T03:40:15.146Z,1010.50
2019-06-07T03:41:15.044Z,1010.56
2019-06-07T03:42:20.519Z,1010.54
2019-06-07T03:43:15.012Z,1010.59
2019-06-07T03:44:38.993Z,1010.56
2019-06-07T03:45:14.987Z,1010.58
2019-06-07T03:46:38.966Z,1010.56
2019-06-07T03:47:14.966Z,1010.59
2019-06-07T03:48:15.031Z,1010.57
2019-06-07T03:49:14.957Z,1010.68
2019-06-07T03:50:16.966Z,1010.62
2019-06-07T03:51:24.592Z,1010.64
2019-06-07T03:52:15.948Z,1010.65
2019-06-07T03:53:14.929Z,1010.66
2019-06-07T03:54:14.892Z,1010.69
2019-06-07T03:55:14.956Z,1010.64
2019-06-07T03:56:15.713Z,1010.67
2019-06-07T03:57:14.956Z,1010.60
2019-06-07T03:58:31.341Z,1010.60
2019-06-07T03:59:15.844Z,1010.61
2019-06-07T04:00:14.874Z,1010.55
2019-06-07T04:01:14.807Z,1010.60
2019-06-07T04:02:14.893Z,1010.60
2019-06-07T04:03:33.036Z,1010.65
2019-06-07T04:04:15.787Z,1010.62
2019-06-07T04:05:14.807Z,1010.64
2019-06-07T04:06:14.752Z,1010.62
2019-06-07T04:07:14.820Z,1010.61
2019-06-07T04:08:14.746Z,1010.62
2019-06-07T04:09:14.731Z,1010.61
2019-06-07T04:10:14.717Z,1010.62
2019-06-07T04:11:14.744Z,1010.68
2019-06-07T04:12:14.683Z,1010.64
2019-06-07T04:13:14.791Z,1010.60
2019-06-07T04:14:14.660Z,1010.62
2019-06-07T04:15:14.670Z,1010.63
2019-06-07T04:16:14.639Z,1010.66
2019-06-07T04:17:14.683Z,1010.68
2019-06-07T04:18:14.642Z,1010.68
2019-06-07T04:19:14.698Z,1010.67
2019-06-07T04:20:14.599Z,1010.70
2019-06-07T04:21:14.608Z,1010.72
2019-06-07T04:22:14.577Z,1010.72
2019-06-07T04:23:27.737Z,1010.73
2019-06-07T04:24:15.551Z,1010.79
2019-06-07T04:25:14.637Z,1010.81
2019-06-07T04:26:14.572Z,1010.81
2019-06-07T04:27:15.578Z,1010.81
2019-06-07T04:28:14.520Z,1010.79
2019-06-07T04:29:33.984Z,1010.84
2019-06-07T04:30:15.482Z,1010.82
2019-06-07T04:31:15.496Z,1010.73
2019-06-07T04:32:14.463Z,1010.76
2019-06-07T04:33:14.520Z,1010.77
2019-06-07T04:34:14.447Z,1010.76
2019-06-07T04:35:14.499Z,1010.80
2019-06-07T04:36:14.423Z,1010.79
2019-06-07T04:37:15.435Z,1010.84
2019-06-07T04:38:14.410Z,1010.83
2019-06-07T04:39:14.424Z,1010.85
2019-06-07T04:40:14.390Z,1010.82
2019-06-07T04:41:14.439Z,1010.83
2019-06-07T04:42:14.368Z,1010.84
2019-06-07T04:43:14.381Z,1010.74
2019-06-07T04:44:14.333Z,1010.81
2019-06-07T04:45:33.049Z,1010.81
2019-06-07T04:46:15.307Z,1010.83
2019-06-07T04:47:14.378Z,1010.91
2019-06-07T04:48:14.302Z,1010.94
2019-06-07T04:49:14.395Z,1010.91
2019-06-07T04:50:14.266Z,1010.91
2019-06-07T04:51:14.525Z,1010.94
2019-06-07T04:52:14.242Z,1010.95
2019-06-07T04:53:14.352Z,1011.02
2019-06-07T04:54:14.227Z,1010.98
2019-06-07T04:55:14.232Z,1011.01
2019-06-07T04:56:14.195Z,1011.00
2019-06-07T04:57:14.245Z,1010.98
2019-06-07T04:58:14.204Z,1011.00
2019-06-07T05:00:00.470Z,1011.01
2019-06-07T05:00:46.857Z,1011.00
2019-06-07T05:01:26.960Z,1010.99
2019-06-07T05:02:15.198Z,1010.98
2019-06-07T05:03:14.132Z,1010.95
2019-06-07T05:04:14.188Z,1010.98
2019-06-07T05:05:14.099Z,1010.88
2019-06-07T05:06:14.100Z,1010.92
2019-06-07T05:07:14.080Z,1010.93
2019-06-07T05:08:27.550Z,1010.92
2019-06-07T05:09:15.052Z,1010.96
2019-06-07T05:10:14.126Z,1010.91
2019-06-07T05:11:14.030Z,1010.82
2019-06-07T05:12:14.036Z,1010.83
2019-06-07T05:13:14.025Z,1010.87
2019-06-07T05:14:32.579Z,1010.89
2019-06-07T05:15:14.005Z,1010.81
2019-06-07T05:16:22.567Z,1010.78
2019-06-07T05:17:13.961Z,1010.81
2019-06-07T05:18:14.009Z,1010.77
2019-06-07T05:19:13.941Z,1010.73
2019-06-07T05:20:13.989Z,1010.85
2019-06-07T05:21:13.924Z,1010.84
2019-06-07T05:22:14.007Z,1010.82
2019-06-07T05:23:59.462Z,1010.82
2019-06-07T05:24:14.942Z,1010.83
2019-06-07T05:25:13.873Z,1010.91
2019-06-07T05:26:13.929Z,1010.93
2019-06-07T05:27:13.849Z,1010.93
2019-06-07T05:28:13.947Z,1010.93
2019-06-07T05:29:13.838Z,1010.94
2019-06-07T05:30:50.923Z,1010.97
2019-06-07T05:31:14.884Z,1010.94
2019-06-07T05:32:13.791Z,1010.94
2019-06-07T05:33:14.085Z,1010.94
2019-06-07T05:34:13.782Z,1010.91
2019-06-07T05:35:13.809Z,1010.87
2019-06-07T05:36:13.744Z,1010.90
2019-06-07T05:37:13.800Z,1010.92
2019-06-07T05:38:13.721Z,1010.89
2019-06-07T05:39:13.785Z,1010.85
2019-06-07T05:40:13.717Z,1010.87
2019-06-07T05:41:13.732Z,1010.85
2019-06-07T05:42:13.704Z,1010.89
2019-06-07T05:43:13.737Z,1010.78
2019-06-07T05:44:15.108Z,1010.81
2019-06-07T05:45:13.753Z,1010.86
2019-06-07T05:46:13.638Z,1010.79
2019-06-07T05:47:13.662Z,1010.77
2019-06-07T05:48:13.640Z,1010.74
2019-06-07T05:49:13.708Z,1010.69
2019-06-07T05:50:38.030Z,1010.70
2019-06-07T05:51:14.574Z,1010.67
2019-06-07T05:52:13.594Z,1010.62
2019-06-07T05:53:13.556Z,1010.64
2019-06-07T05:54:13.638Z,1010.61
2019-06-07T05:55:13.531Z,1010.60
2019-06-07T05:56:14.171Z,1010.57
2019-06-07T05:57:13.509Z,1010.60
2019-06-07T05:58:14.571Z,1010.61
2019-06-07T05:59:13.532Z,1010.59
2019-06-07T06:00:15.504Z,1010.61
2019-06-07T06:01:42.102Z,1010.50
2019-06-07T06:02:22.773Z,1010.51
2019-06-07T06:03:14.488Z,1010.50
2019-06-07T06:04:13.451Z,1010.50
2019-06-07T06:05:32.661Z,1010.53
2019-06-07T06:06:14.417Z,1010.47
2019-06-07T06:07:13.493Z,1010.46
2019-06-07T06:08:13.393Z,1010.50
2019-06-07T06:09:14.319Z,1010.51
2019-06-07T06:10:13.377Z,1010.51
2019-06-07T06:11:13.417Z,1010.51
2019-06-07T06:12:13.349Z,1010.52
2019-06-07T06:13:13.430Z,1010.55
2019-06-07T06:14:13.342Z,1010.53
2019-06-07T06:15:13.342Z,1010.52
2019-06-07T06:16:13.308Z,1010.50
2019-06-07T06:17:13.397Z,1010.50
2019-06-07T06:18:13.281Z,1010.48
2019-06-07T06:19:13.300Z,1010.52
2019-06-07T06:20:13.263Z,1010.54
2019-06-07T06:21:19.419Z,1010.55
2019-06-07T06:22:14.233Z,1010.54
2019-06-07T06:23:13.309Z,1010.56
2019-06-07T06:24:13.250Z,1010.55
2019-06-07T06:26:14.239Z,1010.52
2019-06-07T06:27:54.908Z,1010.54
2019-06-07T06:28:16.036Z,1010.54
2019-06-07T06:29:13.196Z,1010.51
2019-06-07T06:30:13.242Z,1010.49
2019-06-07T06:31:13.133Z,1010.56
2019-06-07T06:32:41.188Z,1010.53
2019-06-07T06:33:30.828Z,1010.51
2019-06-07T06:34:14.123Z,1010.53
2019-06-07T06:35:13.177Z,1010.53
2019-06-07T06:36:13.086Z,1010.58
2019-06-07T06:37:13.088Z,1010.52
2019-06-07T06:38:13.085Z,1010.53
2019-06-07T06:39:13.099Z,1010.57
2019-06-07T06:40:13.052Z,1010.47
2019-06-07T06:41:16.319Z,1010.49
2019-06-07T06:42:13.013Z,1010.55
2019-06-07T06:43:13.025Z,1010.52
2019-06-07T06:44:12.994Z,1010.52
2019-06-07T06:45:13.103Z,1010.48
2019-06-07T06:46:12.969Z,1010.47
2019-06-07T06:47:13.971Z,1010.46
2019-06-07T06:48:12.975Z,1010.42
2019-06-07T06:49:12.969Z,1010.42
2019-06-07T06:50:12.937Z,1010.45
2019-06-07T06:51:12.979Z,1010.44
2019-06-07T06:52:12.908Z,1010.40
2019-06-07T06:53:12.988Z,1010.43
2019-06-07T06:54:12.882Z,1010.39
2019-06-07T06:55:12.947Z,1010.38
2019-06-07T06:56:12.866Z,1010.40
2019-06-07T06:57:19.747Z,1010.42
2019-06-07T06:58:13.836Z,1010.38
2019-06-07T06:59:37.153Z,1010.41
2019-06-07T07:00:13.836Z,1010.40
2019-06-07T07:01:12.852Z,1010.33
2019-06-07T07:02:12.798Z,1010.34
2019-06-07T07:04:13.880Z,1010.29
2019-06-07T07:05:12.771Z,1010.33
2019-06-07T07:06:25.918Z,1010.19
2019-06-07T07:07:13.740Z,1010.18
2019-06-07T07:08:12.792Z,1010.13
2019-06-07T07:09:12.713Z,1010.17
2019-06-07T07:10:12.878Z,1010.17
2019-06-07T07:11:12.694Z,1010.14
2019-06-07T07:12:14.758Z,1010.17
2019-06-07T07:13:12.673Z,1010.17
2019-06-07T07:14:13.063Z,1010.11
2019-06-07T07:15:12.680Z,1010.12
2019-06-07T07:16:12.736Z,1010.14
2019-06-07T07:17:12.634Z,1010.08
2019-06-07T07:18:12.661Z,1010.15
2019-06-07T07:19:12.610Z,1010.23
2019-06-07T07:20:12.722Z,1010.15
2019-06-07T07:21:12.580Z,1010.28
2019-06-07T07:22:12.684Z,1010.20
2019-06-07T07:23:12.571Z,1010.21
2019-06-07T07:24:21.486Z,1010.19
2019-06-07T07:25:13.575Z,1010.15
2019-06-07T07:26:14.551Z,1010.07
2019-06-07T07:27:12.526Z,1010.15
2019-06-07T07:29:12.492Z,1010.05
2019-06-07T07:31:13.474Z,1010.07
2019-06-07T07:32:13.577Z,1009.99
2019-06-07T07:33:12.451Z,1010.05
2019-06-07T07:34:32.603Z,1009.98
2019-06-07T07:35:13.453Z,1009.96
2019-06-07T07:36:28.731Z,1010.10
2019-06-07T07:37:13.409Z,1010.00
2019-06-07T07:38:12.480Z,1009.99
2019-06-07T07:39:12.406Z,1009.98
2019-06-07T07:40:55.674Z,1010.02
2019-06-07T07:41:15.517Z,1009.99
2019-06-07T07:42:20.613Z,1009.88
2019-06-07T07:43:13.345Z,1009.93
2019-06-07T07:44:12.435Z,1009.97
2019-06-07T07:45:12.337Z,1010.13
2019-06-07T07:46:29.486Z,1009.89
2019-06-07T07:47:13.296Z,1010.05
2019-06-07T07:48:17.803Z,1010.03
2019-06-07T07:49:13.291Z,1009.93
2019-06-07T07:50:12.394Z,1009.97
2019-06-07T07:51:12.263Z,1010.11
2019-06-07T07:52:12.276Z,1009.92
2019-06-07T07:53:12.242Z,1009.92
2019-06-07T07:54:12.282Z,1009.86
2019-06-07T07:55:12.285Z,1009.86
2019-06-07T07:56:12.329Z,1009.94
2019-06-07T07:57:12.196Z,1009.95
2019-06-07T07:58:12.206Z,1009.87
2019-06-07T07:59:12.182Z,1009.82
2019-06-07T08:00:49.369Z,1009.93
2019-06-07T08:01:13.239Z,1009.86
2019-06-07T08:02:12.164Z,1009.87
2019-06-07T08:03:12.239Z,1009.91
2019-06-07T08:04:12.124Z,1009.93
2019-06-07T08:05:22.564Z,1009.95
2019-06-07T08:06:13.216Z,1009.86
2019-06-07T08:07:12.083Z,1009.85
2019-06-07T08:08:12.173Z,1009.96
2019-06-07T08:09:12.065Z,1009.91
2019-06-07T08:10:13.137Z,1009.87
2019-06-07T08:11:13.022Z,1009.85
2019-06-07T08:12:13.120Z,1009.86
2019-06-07T08:13:24.710Z,1009.83
2019-06-07T08:14:13.001Z,1009.76
2019-06-07T08:15:12.014Z,1009.83
2019-06-07T08:16:16.752Z,1009.72
2019-06-07T08:17:14.077Z,1009.70
2019-06-07T08:18:11.961Z,1009.77
2019-06-07T08:19:13.143Z,1009.78
2019-06-07T08:20:11.938Z,1009.82
2019-06-07T08:21:24.379Z,1009.83
2019-06-07T08:22:12.913Z,1009.86
2019-06-07T08:23:11.978Z,1009.89
2019-06-07T08:24:11.894Z,1009.88
2019-06-07T08:25:11.980Z,1009.81
2019-06-07T08:26:11.892Z,1009.76
2019-06-07T08:27:25.797Z,1009.89
2019-06-07T08:28:12.866Z,1009.79
2019-06-07T08:29:11.909Z,1009.79
2019-06-07T08:30:46.327Z,1009.79
2019-06-07T08:31:12.832Z,1009.84
2019-06-07T08:32:11.809Z,1009.77
2019-06-07T08:33:25.237Z,1009.74
2019-06-07T08:34:12.788Z,1009.83
2019-06-07T08:35:11.868Z,1009.72
2019-06-07T08:36:19.991Z,1009.72
2019-06-07T08:37:12.761Z,1009.74
2019-06-07T08:38:26.373Z,1009.74
2019-06-07T08:39:12.732Z,1009.76
2019-06-07T08:40:11.776Z,1009.75
2019-06-07T08:41:12.705Z,1009.71
2019-06-07T08:42:17.836Z,1009.61
2019-06-07T08:43:20.261Z,1009.52
2019-06-07T08:44:23.398Z,1009.52
2019-06-07T08:45:12.723Z,1009.56
2019-06-07T08:46:11.761Z,1009.44
2019-06-07T08:47:19.771Z,1009.55
2019-06-07T08:48:27.124Z,1009.57
2019-06-07T08:49:12.621Z,1009.48
2019-06-07T08:50:11.641Z,1009.51
2019-06-07T08:51:11.614Z,1009.42
2019-06-07T08:52:12.646Z,1009.46
2019-06-07T08:53:12.575Z,1009.38
2019-06-07T08:54:22.393Z,1009.42
2019-06-07T08:55:12.553Z,1009.32
2019-06-07T08:56:20.635Z,1009.40
2019-06-07T08:57:20.405Z,1009.34
2019-06-07T08:58:12.524Z,1009.35
2019-06-07T08:59:12.539Z,1009.40
2019-06-07T09:00:42.220Z,1009.29
2019-06-07T09:01:12.506Z,1009.22
2019-06-07T09:02:23.223Z,1009.27
2019-06-07T09:03:12.463Z,1009.26
2019-06-07T09:04:11.584Z,1009.25
2019-06-07T09:05:12.596Z,1009.13
2019-06-07T09:06:53.839Z,1009.17
2019-06-07T09:07:19.517Z,1009.15
2019-06-07T09:08:29.440Z,1009.09
2019-06-07T09:09:12.397Z,1009.13
2019-06-07T09:10:14.230Z,1009.06
2019-06-07T09:11:11.693Z,1009.12
2019-06-07T09:12:11.734Z,1009.11
2019-06-07T09:13:12.103Z,1009.25
2019-06-07T09:14:11.349Z,1009.18
2019-06-07T09:15:21.447Z,1009.15
2019-06-07T09:16:12.335Z,1009.11
2019-06-07T09:17:12.577Z,1009.20
2019-06-07T09:19:12.284Z,1009.08
2019-06-07T09:20:35.238Z,1009.08
2019-06-07T09:21:12.298Z,1009.09
2019-06-07T09:22:11.719Z,1009.09
2019-06-07T09:23:16.715Z,1008.93
2019-06-07T09:24:12.378Z,1008.92
2019-06-07T09:25:20.619Z,1008.87
2019-06-07T09:26:18.295Z,1009.11
2019-06-07T09:27:12.302Z,1008.84
2019-06-07T09:28:19.092Z,1008.98
2019-06-07T09:29:12.291Z,1008.96
2019-06-07T09:30:16.492Z,1009.02
2019-06-07T09:31:12.879Z,1009.00
2019-06-07T09:32:17.882Z,1009.04
2019-06-07T09:33:12.129Z,1009.02
2019-06-07T09:34:14.932Z,1009.00
2019-06-07T09:35:17.011Z,1009.02
2019-06-07T09:36:13.462Z,1008.90
2019-06-07T09:38:02.938Z,1008.83
2019-06-07T09:38:24.090Z,1008.93
2019-06-07T09:39:20.077Z,1008.85
2019-06-07T09:40:24.831Z,1008.85
2019-06-07T09:41:12.048Z,1008.88
2019-06-07T09:42:17.162Z,1008.78
2019-06-07T09:44:23.927Z,1008.89
2019-06-07T09:45:14.111Z,1008.81
2019-06-07T09:46:14.678Z,1008.83
2019-06-07T09:47:30.338Z,1008.76
2019-06-07T09:48:16.050Z,1008.85
2019-06-07T09:49:21.225Z,1008.82
2019-06-07T09:50:12.580Z,1008.72
2019-06-07T09:51:19.077Z,1008.72
2019-06-07T09:52:12.004Z,1008.67
2019-06-07T09:53:21.932Z,1008.72
2019-06-07T09:55:02.375Z,1008.66
2019-06-07T09:55:23.142Z,1008.72
2019-06-07T09:56:12.357Z,1008.54
2019-06-07T09:57:17.186Z,1008.63
2019-06-07T09:58:50.208Z,1008.70
2019-06-07T09:59:12.935Z,1008.44
2019-06-07T10:00:38.260Z,1008.50
2019-06-07T10:01:13.679Z,1008.55
2019-06-07T10:02:13.727Z,1008.60
2019-06-07T10:03:20.038Z,1008.62
2019-06-07T10:04:30.276Z,1008.60
2019-06-07T10:05:14.103Z,1008.67
2019-06-07T10:06:13.560Z,1008.67
2019-06-07T10:07:28.723Z,1008.54
2019-06-07T10:08:54.342Z,1008.64
2019-06-07T10:10:08.987Z,1008.47
2019-06-07T10:11:11.725Z,1008.45
2019-06-07T10:12:10.806Z,1008.46
2019-06-07T10:13:10.696Z,1008.41
2019-06-07T10:14:10.785Z,1008.37
2019-06-07T10:15:10.678Z,1008.38
2019-06-07T10:16:10.699Z,1008.52
2019-06-07T10:17:10.679Z,1008.41
2019-06-07T10:18:10.715Z,1008.56
2019-06-07T10:19:10.633Z,1008.49
2019-06-07T10:20:10.722Z,1008.26
2019-06-07T10:21:14.795Z,1008.22
2019-06-07T10:22:12.723Z,1008.43
2019-06-07T10:23:10.643Z,1008.33
2019-06-07T10:24:10.692Z,1008.26
2019-06-07T10:25:10.745Z,1008.24
2019-06-07T10:26:10.676Z,1008.22
2019-06-07T10:27:10.655Z,1008.26
2019-06-07T10:28:10.579Z,1008.26
2019-06-07T10:29:10.526Z,1008.19
2019-06-07T10:30:11.625Z,1008.28
2019-06-07T10:31:11.472Z,1008.27
2019-06-07T10:32:11.663Z,1008.15
2019-06-07T10:33:10.661Z,1008.17
2019-06-07T10:34:10.968Z,1008.27
2019-06-07T10:35:13.873Z,1008.19
2019-06-07T10:36:11.550Z,1008.21
2019-06-07T10:37:14.881Z,1008.10
2019-06-07T10:38:11.489Z,1008.01
2019-06-07T10:39:11.376Z,1008.11
2019-06-07T10:40:11.346Z,1008.16
2019-06-07T10:41:11.112Z,1008.09
2019-06-07T10:42:11.595Z,1008.04
2019-06-07T10:43:14.293Z,1007.89
2019-06-07T10:44:11.453Z,1008.03
2019-06-07T10:45:12.187Z,1008.06
2019-06-07T10:46:11.896Z,1008.06
2019-06-07T10:47:10.330Z,1008.07
2019-06-07T10:48:11.706Z,1007.95
2019-06-07T10:49:10.319Z,1008.03
2019-06-07T10:50:10.498Z,1007.92
2019-06-07T10:51:12.376Z,1007.82
2019-06-07T10:52:11.515Z,1007.89
2019-06-07T10:53:10.771Z,1008.02
2019-06-07T10:54:24.850Z,1007.65
2019-06-07T10:55:11.247Z,1007.75
2019-06-07T10:56:11.078Z,1007.67
2019-06-07T10:57:12.897Z,1007.78
2019-06-07T10:58:11.325Z,1007.69
2019-06-07T10:59:11.831Z,1007.60
2019-06-07T11:00:11.705Z,1007.73
2019-06-07T11:01:12.379Z,1007.59
2019-06-07T11:02:11.763Z,1007.75
2019-06-07T11:03:10.178Z,1007.74
2019-06-07T11:04:10.210Z,1007.74
2019-06-07T11:05:10.335Z,1007.81
2019-06-07T11:06:10.236Z,1007.83
2019-06-07T11:07:10.216Z,1007.70
2019-06-07T11:08:14.978Z,1007.74
2019-06-07T11:09:10.094Z,1007.69
2019-06-07T11:10:17.129Z,1007.62
2019-06-07T11:11:12.208Z,1007.74
2019-06-07T11:12:12.469Z,1007.73
2019-06-07T11:13:10.451Z,1007.62
2019-06-07T11:14:10.599Z,1007.51
2019-06-07T11:15:11.037Z,1007.70
2019-06-07T11:16:11.210Z,1007.69
2019-06-07T11:17:11.311Z,1007.71
2019-06-07T11:18:10.327Z,1007.52
2019-06-07T11:19:13.694Z,1007.60
2019-06-07T11:20:12.377Z,1007.48
2019-06-07T11:21:10.139Z,1007.47
2019-06-07T11:22:10.225Z,1007.46
2019-06-07T11:23:10.157Z,1007.53
2019-06-07T11:24:10.233Z,1007.49
2019-06-07T11:25:11.014Z,1007.38
2019-06-07T11:26:10.316Z,1007.44
2019-06-07T11:27:11.635Z,1007.51
2019-06-07T11:28:10.599Z,1007.55
2019-06-07T11:29:10.892Z,1007.52
2019-06-07T11:30:10.574Z,1007.51
2019-06-07T11:31:10.815Z,1007.50
2019-06-07T11:32:10.571Z,1007.51
2019-06-07T11:33:12.015Z,1007.34
2019-06-07T11:34:10.445Z,1007.42
2019-06-07T11:35:11.627Z,1007.37
2019-06-07T11:36:10.659Z,1007.41
2019-06-07T11:37:11.401Z,1007.37
2019-06-07T11:38:10.577Z,1007.27
2019-06-07T11:39:11.109Z,1007.28
2019-06-07T11:40:28.572Z,1007.45
2019-06-07T11:41:11.567Z,1007.42
2019-06-07T11:42:09.986Z,1007.22
2019-06-07T11:43:10.746Z,1007.37
2019-06-07T11:44:11.004Z,1007.46
2019-06-07T11:45:10.545Z,1007.24
2019-06-07T11:46:10.903Z,1007.21
2019-06-07T11:47:10.503Z,1007.24
2019-06-07T11:48:09.695Z,1007.36
2019-06-07T11:49:10.893Z,1007.30
2019-06-07T11:50:09.655Z,1007.36
2019-06-07T11:51:10.827Z,1007.22
2019-06-07T11:52:09.618Z,1007.17
2019-06-07T11:53:10.749Z,1006.95
2019-06-07T11:54:09.744Z,1007.29
2019-06-07T11:55:16.596Z,1007.29
2019-06-07T11:56:10.363Z,1007.27
2019-06-07T11:57:12.916Z,1007.14
2019-06-07T11:58:13.416Z,1007.14
2019-06-07T11:59:11.174Z,1007.25
2019-06-07T12:00:09.537Z,1007.11
2019-06-07T12:01:09.743Z,1007.11
2019-06-07T12:02:09.514Z,1007.01
2019-06-07T12:03:09.584Z,1007.00
2019-06-07T12:04:09.592Z,1006.96
2019-06-07T12:05:13.182Z,1006.99
2019-06-07T12:06:11.941Z,1006.92
2019-06-07T12:07:10.839Z,1006.99
2019-06-07T12:08:10.013Z,1006.74
2019-06-07T12:09:10.638Z,1006.91
2019-06-07T12:10:10.785Z,1006.85
2019-06-07T12:11:10.130Z,1006.91
2019-06-07T12:12:10.324Z,1007.03
2019-06-07T12:13:10.426Z,1007.13
2019-06-07T12:14:10.876Z,1006.83
2019-06-07T12:15:10.613Z,1006.93
2019-06-07T12:16:09.360Z,1006.69